Time;durP1;ratioP1;P1;durP2;ratioP2;P2;SDS_P1;SDS_P2;PMS_P1;PMS_P2;Temp;Humidity;BMP_temperature;BMP_pressure;BME280_temperature;BME280_humidity;BME280_pressure;Samples;Min_cycle;Max_cycle;Signal;HPM_P1;HPM_P2
2023/04/07 00:00:27;;;;;;;45.70;34.15;;;7.20;99.90;;;;;;5100389;28;20054;-53
2023/04/07 00:02:53;;;;;;;54.07;35.77;;;7.20;99.90;;;;;;5090379;28;20036;-54
2023/04/07 00:05:18;;;;;;;52.23;37.60;;;7.20;99.90;;;;;;5101229;28;20067;-54
2023/04/07 00:07:44;;;;;;;52.43;37.57;;;7.10;99.90;;;;;;5089296;28;20672;-53
2023/04/07 00:10:10;;;;;;;54.90;37.83;;;7.20;99.90;;;;;;5095724;28;20088;-54
2023/04/07 00:12:35;;;;;;;53.00;37.30;;;7.20;99.90;;;;;;5108223;28;20036;-53
2023/04/07 00:15:02;;;;;;;49.27;36.30;;;7.20;99.90;;;;;;5094487;28;20278;-54
2023/04/07 00:17:27;;;;;;;58.80;38.58;;;7.20;99.90;;;;;;5107700;28;20048;-56
2023/04/07 00:19:53;;;;;;;59.37;39.70;;;7.20;99.90;;;;;;5106574;27;20051;-55
2023/04/07 00:22:18;;;;;;;59.83;39.77;;;7.10;99.90;;;;;;5091297;28;20044;-57
2023/04/07 00:24:44;;;;;;;61.47;41.10;;;7.20;99.90;;;;;;5090711;28;20033;-57
2023/04/07 00:27:09;;;;;;;57.93;40.00;;;7.10;99.90;;;;;;5108339;28;20092;-53
2023/04/07 00:29:35;;;;;;;61.90;39.80;;;7.10;99.90;;;;;;5096995;28;20118;-54
2023/04/07 00:32:00;;;;;;;61.57;39.47;;;7.10;99.90;;;;;;5106339;28;20039;-56
2023/04/07 00:34:26;;;;;;;61.80;42.17;;;7.10;99.90;;;;;;5099695;28;20549;-55
2023/04/07 00:36:52;;;;;;;61.30;39.90;;;7.10;99.90;;;;;;5091152;28;20528;-55
2023/04/07 00:39:18;;;;;;;59.42;41.50;;;7.10;99.90;;;;;;5088362;28;20060;-56
2023/04/07 00:41:44;;;;;;;64.20;41.95;;;7.10;99.90;;;;;;5098971;28;20544;-53
2023/04/07 00:44:10;;;;;;;62.60;43.28;;;7.10;99.90;;;;;;5089735;28;20123;-54
2023/04/07 00:46:36;;;;;;;71.32;43.35;;;7.10;99.90;;;;;;5101022;28;20043;-55
2023/04/07 00:49:02;;;;;;;74.93;46.25;;;7.10;99.90;;;;;;5102222;28;20085;-54
2023/04/07 00:51:28;;;;;;;74.05;45.10;;;7.10;99.90;;;;;;5096903;28;20100;-56
2023/04/07 00:53:54;;;;;;;69.80;44.03;;;7.10;99.90;;;;;;5089299;28;20044;-53
2023/04/07 00:56:19;;;;;;;73.93;46.55;;;7.10;99.90;;;;;;5093778;28;20035;-55
2023/04/07 00:58:45;;;;;;;72.25;45.60;;;7.10;99.90;;;;;;5088526;28;20036;-55
2023/04/07 01:01:21;;;;;;;72.23;46.63;;;7.10;99.90;;;;;;5103389;28;20088;-53
2023/04/07 01:04:16;;;;;;;67.68;45.67;;;7.10;99.90;;;;;;5106232;28;20039;-55
2023/04/07 01:06:48;;;;;;;74.78;45.97;;;7.10;99.90;;;;;;5096550;28;20165;-55
2023/04/07 01:09:35;;;;;;;75.03;45.80;;;7.10;99.90;;;;;;5102757;28;20427;-56
2023/04/07 01:12:24;;;;;;;75.63;45.35;;;7.10;99.90;;;;;;5093066;28;20093;-53
2023/04/07 01:14:53;;;;;;;75.38;47.30;;;7.10;99.90;;;;;;5089650;28;20036;-54
2023/04/07 01:17:21;;;;;;;71.35;44.58;;;7.10;99.90;;;;;;5090325;28;20088;-53
2023/04/07 01:19:57;;;;;;;78.25;48.72;;;7.10;99.90;;;;;;5105618;28;20043;-53
2023/04/07 01:22:32;;;;;;;82.15;48.30;;;7.10;99.90;;;;;;5103372;28;20031;-56
2023/04/07 01:25:27;;;;;;;75.45;47.50;;;7.10;99.90;;;;;;5089528;28;20408;-53
2023/04/07 01:27:59;;;;;;;75.75;46.67;;;7.10;99.90;;;;;;5089208;28;20089;-55
2023/04/07 01:30:28;;;;;;;75.88;46.80;;;7.10;99.90;;;;;;5094441;28;20070;-55
2023/04/07 01:32:57;;;;;;;73.32;46.00;;;7.10;99.90;;;;;;5105812;28;20044;-54
2023/04/07 01:35:23;;;;;;;74.60;47.08;;;7.10;99.90;;;;;;5089654;28;20028;-53
2023/04/07 01:37:49;;;;;;;;;;;7.10;99.90;;;;;;5102762;28;20344;-54
2023/04/07 01:40:16;;;;;;;76.00;46.58;;;7.10;99.90;;;;;;5105819;28;19923;-52
2023/04/07 01:42:41;;;;;;;;;;;7.10;99.90;;;;;;5093937;28;20477;-54
2023/04/07 01:45:08;;;;;;;73.78;45.30;;;7.10;99.90;;;;;;5090168;28;19935;-55
2023/04/07 01:47:36;;;;;;;75.28;46.00;;;7.10;99.90;;;;;;5104094;28;20080;-55
2023/04/07 01:50:06;;;;;;;71.63;45.08;;;7.10;99.90;;;;;;5109677;28;20512;-54
2023/04/07 01:52:33;;;;;;;75.30;46.17;;;7.10;99.90;;;;;;5099417;28;20509;-55
2023/04/07 01:54:59;;;;;;;74.03;46.88;;;7.10;99.90;;;;;;5094040;28;20111;-53
2023/04/07 01:57:25;;;;;;;76.35;46.47;;;7.10;99.90;;;;;;5100986;28;20580;-56
2023/04/07 01:59:50;;;;;;;71.95;45.60;;;7.10;99.90;;;;;;5095628;28;20047;-56
2023/04/07 02:02:16;;;;;;;73.40;46.73;;;7.10;99.90;;;;;;5101210;28;20416;-53
2023/04/07 02:04:56;;;;;;;76.93;47.40;;;7.10;99.90;;;;;;5110114;28;20802;-53
2023/04/07 02:07:47;;;;;;;71.00;45.65;;;7.10;99.90;;;;;;5104367;28;20101;-56
2023/04/07 02:10:16;;;;;;;71.53;46.60;;;7.10;99.90;;;;;;5092603;28;20032;-53
2023/04/07 02:12:45;;;;;;;78.28;49.22;;;7.10;99.90;;;;;;5093878;28;20038;-53
2023/04/07 02:15:11;;;;;;;84.25;49.13;;;7.10;99.90;;;;;;5111181;28;20035;-54
2023/04/07 02:17:41;;;;;;;79.53;47.00;;;7.10;99.90;;;;;;5108684;28;20035;-53
2023/04/07 02:20:08;;;;;;;71.30;47.38;;;7.10;99.90;;;;;;5110832;28;20039;-54
2023/04/07 02:22:34;;;;;;;76.80;49.00;;;7.10;99.90;;;;;;5102702;28;20044;-56
2023/04/07 02:25:00;;;;;;;71.47;46.17;;;7.10;99.90;;;;;;5091989;28;20038;-54
2023/04/07 02:27:26;;;;;;;73.00;44.73;;;7.10;99.90;;;;;;5097378;28;20123;-54
2023/04/07 02:29:52;;;;;;;75.07;44.50;;;7.10;99.90;;;;;;5091801;28;20032;-54
2023/04/07 02:32:17;;;;;;;73.10;44.97;;;7.10;99.90;;;;;;5096781;28;20040;-54
2023/04/07 02:34:43;;;;;;;72.37;45.53;;;7.10;99.90;;;;;;5107411;28;20046;-53
2023/04/07 02:37:08;;;;;;;80.97;45.47;;;7.10;99.90;;;;;;5100357;28;20114;-55
2023/04/07 02:39:34;;;;;;;75.03;45.77;;;7.10;99.90;;;;;;5108625;28;20037;-54
2023/04/07 02:42:00;;;;;;;68.82;43.88;;;7.10;99.90;;;;;;5101975;28;20531;-54
2023/04/07 02:44:25;;;;;;;73.43;44.00;;;7.10;99.90;;;;;;5110494;28;20032;-54
2023/04/07 02:46:51;;;;;;;67.23;42.20;;;7.10;99.90;;;;;;5110165;28;21276;-57
2023/04/07 02:49:17;;;;;;;67.67;41.97;;;7.10;99.90;;;;;;5091336;28;20418;-53
2023/04/07 02:51:42;;;;;;;73.47;46.03;;;7.10;99.90;;;;;;5107987;28;20066;-53
2023/04/07 02:54:08;;;;;;;66.53;42.07;;;7.10;99.90;;;;;;5106027;28;20040;-54
2023/04/07 02:56:33;;;;;;;64.73;40.03;;;7.10;99.90;;;;;;5107198;28;20046;-57
2023/04/07 02:58:59;;;;;;;78.07;43.63;;;7.10;99.90;;;;;;5093060;28;20278;-56
2023/04/07 03:01:25;;;;;;;70.60;42.50;;;7.10;99.90;;;;;;5091363;28;20043;-56
2023/04/07 03:03:50;;;;;;;68.28;42.20;;;7.10;99.90;;;;;;5090371;28;20297;-54
2023/04/07 03:06:16;;;;;;;61.93;39.67;;;7.10;99.90;;;;;;5092820;28;20412;-56
2023/04/07 03:08:41;;;;;;;71.03;42.23;;;7.10;99.90;;;;;;5096374;28;20106;-52
2023/04/07 03:11:07;;;;;;;68.50;42.37;;;7.10;99.90;;;;;;5105433;28;20119;-56
2023/04/07 03:13:33;;;;;;;71.13;43.60;;;7.10;99.90;;;;;;5098902;28;20504;-55
2023/04/07 03:15:58;;;;;;;70.10;44.03;;;7.10;99.90;;;;;;5106917;28;20039;-54
2023/04/07 03:18:24;;;;;;;79.50;45.93;;;7.10;99.90;;;;;;5099551;28;20111;-54
2023/04/07 03:20:51;;;;;;;74.03;45.10;;;7.10;99.90;;;;;;5090951;28;20059;-53
2023/04/07 03:23:17;;;;;;;70.22;43.50;;;7.10;99.90;;;;;;5100419;28;20074;-55
2023/04/07 03:25:43;;;;;;;71.82;44.90;;;7.10;99.90;;;;;;5090305;28;20071;-53
2023/04/07 03:28:09;;;;;;;69.32;43.53;;;7.10;99.90;;;;;;5096303;28;20444;-53
2023/04/07 03:30:35;;;;;;;64.68;43.75;;;7.10;99.90;;;;;;5109535;28;20047;-54
2023/04/07 03:33:01;;;;;;;;;;;7.10;99.90;;;;;;5106224;28;20036;-54
2023/04/07 03:35:26;;;;;;;66.35;43.03;;;7.10;99.90;;;;;;5091595;28;20383;-54
2023/04/07 03:37:52;;;;;;;72.67;43.33;;;7.10;99.90;;;;;;5101825;28;20580;-54
2023/04/07 03:40:18;;;;;;;65.27;41.90;;;7.10;99.90;;;;;;5089823;28;20047;-54
2023/04/07 03:42:45;;;;;;;67.43;41.45;;;7.10;99.90;;;;;;5092078;28;20031;-53
2023/04/07 03:45:10;;;;;;;65.47;42.35;;;7.10;99.90;;;;;;5102673;28;20092;-57
2023/04/07 03:47:36;;;;;;;58.10;39.13;;;7.10;99.90;;;;;;5106110;28;20048;-55
2023/04/07 03:50:02;;;;;;;60.90;41.00;;;7.10;99.90;;;;;;5091701;28;20108;-54
2023/04/07 03:52:27;;;;;;;63.03;39.33;;;7.10;99.90;;;;;;5093196;28;20493;-51
2023/04/07 03:54:53;;;;;;;59.17;38.67;;;7.10;99.90;;;;;;5092070;28;20041;-52
2023/04/07 03:57:19;;;;;;;57.13;38.30;;;7.10;99.90;;;;;;5090686;28;20457;-54
2023/04/07 03:59:46;;;;;;;55.28;40.03;;;7.10;99.90;;;;;;5104334;28;20028;-52
2023/04/07 04:02:11;;;;;;;59.17;36.92;;;7.00;99.90;;;;;;5107204;28;20047;-53
2023/04/07 04:04:37;;;;;;;57.53;39.33;;;7.10;99.90;;;;;;5099913;28;20055;-51
2023/04/07 04:07:02;;;;;;;58.27;38.03;;;7.10;99.90;;;;;;5108530;28;20465;-54
2023/04/07 04:09:28;;;;;;;57.00;37.37;;;7.00;99.90;;;;;;5093516;28;20059;-50
2023/04/07 04:11:55;;;;;;;56.60;36.77;;;7.00;99.90;;;;;;5091221;28;20079;-51
2023/04/07 04:14:20;;;;;;;57.38;36.88;;;7.00;99.90;;;;;;5095635;28;20074;-50
2023/04/07 04:16:46;;;;;;;57.10;38.20;;;7.00;99.90;;;;;;5092212;28;20063;-52
2023/04/07 04:19:11;;;;;;;60.40;38.00;;;7.00;99.90;;;;;;5098157;28;20065;-51
2023/04/07 04:21:37;;;;;;;63.17;41.97;;;7.00;99.90;;;;;;5107201;28;20114;-53
2023/04/07 04:24:03;;;;;;;65.73;41.53;;;7.00;99.90;;;;;;5098868;28;20504;-53
2023/04/07 04:26:29;;;;;;;61.20;41.25;;;7.00;99.90;;;;;;5103375;28;20032;-51
2023/04/07 04:28:54;;;;;;;62.57;38.87;;;7.00;99.90;;;;;;5094633;28;20050;-53
2023/04/07 04:31:20;;;;;;;57.50;38.50;;;7.00;99.90;;;;;;5092525;28;20073;-52
2023/04/07 04:33:45;;;;;;;49.43;34.13;;;7.00;99.90;;;;;;5091042;28;20043;-52
2023/04/07 04:36:11;;;;;;;55.88;37.17;;;7.00;99.90;;;;;;5089529;28;20039;-51
2023/04/07 04:38:37;;;;;;;64.23;36.80;;;7.00;99.90;;;;;;5096158;28;20154;-52
2023/04/07 04:41:03;;;;;;;56.97;37.33;;;7.00;99.90;;;;;;5092222;28;20414;-52
2023/04/07 04:43:28;;;;;;;63.83;38.13;;;7.00;99.90;;;;;;5106676;27;20036;-51
2023/04/07 04:45:55;;;;;;;54.70;37.23;;;7.00;99.90;;;;;;5090461;28;20038;-50
2023/04/07 04:48:21;;;;;;;60.00;37.05;;;7.00;99.90;;;;;;5092428;28;20401;-51
2023/04/07 04:50:46;;;;;;;53.53;36.00;;;7.00;99.90;;;;;;5107442;28;20049;-53
2023/04/07 04:53:12;;;;;;;54.23;35.93;;;7.00;99.90;;;;;;5107508;28;20058;-50
2023/04/07 04:55:39;;;;;;;53.00;34.50;;;7.00;99.90;;;;;;5091178;28;20044;-54
2023/04/07 04:58:05;;;;;;;54.42;34.33;;;7.00;99.90;;;;;;5089596;28;20774;-53
2023/04/07 05:00:31;;;;;;;49.97;34.03;;;7.00;99.90;;;;;;5089446;28;20126;-51
2023/04/07 05:02:56;;;;;;;48.97;33.83;;;7.00;99.90;;;;;;5089154;28;20493;-51
2023/04/07 05:05:22;;;;;;;54.20;34.43;;;7.00;99.90;;;;;;5104744;28;20064;-53
2023/04/07 05:07:47;;;;;;;50.50;33.43;;;7.00;99.90;;;;;;5089628;28;20075;-53
2023/04/07 05:10:13;;;;;;;54.50;35.27;;;7.00;99.90;;;;;;5091659;28;20036;-53
2023/04/07 05:12:39;;;;;;;51.53;33.00;;;7.00;99.90;;;;;;5102464;28;20042;-50
2023/04/07 05:15:05;;;;;;;54.30;34.90;;;7.00;99.90;;;;;;5095145;28;20481;-53
2023/04/07 05:17:31;;;;;;;51.92;34.20;;;7.00;99.90;;;;;;5089887;28;20039;-50
2023/04/07 05:19:56;;;;;;;59.23;37.03;;;7.00;99.90;;;;;;5101284;28;20467;-52
2023/04/07 05:22:22;;;;;;;56.17;36.90;;;7.00;99.90;;;;;;5112226;28;20035;-51
2023/04/07 05:24:47;;;;;;;56.80;36.23;;;7.00;99.90;;;;;;5102412;28;20097;-50
2023/04/07 05:27:13;;;;;;;58.70;37.43;;;7.00;99.90;;;;;;5093673;28;20123;-50
2023/04/07 05:29:38;;;;;;;59.57;38.40;;;7.00;99.90;;;;;;5098763;28;20450;-52
2023/04/07 05:32:05;;;;;;;60.47;37.00;;;7.00;99.90;;;;;;5111928;28;20036;-52
2023/04/07 05:34:31;;;;;;;53.10;35.83;;;7.00;99.90;;;;;;5106737;27;20040;-52
2023/04/07 05:36:57;;;;;;;55.53;36.40;;;7.00;99.90;;;;;;5110042;27;20039;-51
2023/04/07 05:39:22;;;;;;;55.67;35.67;;;7.00;99.90;;;;;;5095815;28;20067;-53
2023/04/07 05:41:48;;;;;;;50.13;35.28;;;7.00;99.90;;;;;;5111641;28;20043;-50
2023/04/07 05:44:14;;;;;;;49.97;33.73;;;7.10;99.90;;;;;;5110219;28;20464;-53
2023/04/07 05:46:39;;;;;;;50.57;35.80;;;7.10;99.90;;;;;;5112058;28;20077;-50
2023/04/07 05:49:05;;;;;;;51.72;33.78;;;7.10;99.90;;;;;;5108946;28;20282;-52
2023/04/07 05:51:31;;;;;;;47.70;33.90;;;7.10;99.90;;;;;;5094361;28;20123;-54
2023/04/07 05:54:00;;;;;;;44.42;32.95;;;7.10;99.90;;;;;;5095563;28;20043;-51
2023/04/07 05:56:26;;;;;;;44.15;31.40;;;7.00;99.90;;;;;;5096438;28;20448;-52
2023/04/07 05:58:52;;;;;;;44.67;30.50;;;7.10;99.90;;;;;;5091597;28;20058;-52
2023/04/07 06:01:18;;;;;;;48.38;31.83;;;7.10;99.90;;;;;;5109193;28;20536;-51
2023/04/07 06:03:43;;;;;;;42.67;30.13;;;7.10;99.90;;;;;;5108223;28;20027;-50
2023/04/07 06:06:09;;;;;;;45.93;30.37;;;7.10;99.90;;;;;;5107632;28;20764;-54
2023/04/07 06:08:35;;;;;;;33.53;26.33;;;7.10;99.90;;;;;;5107693;28;20034;-51
2023/04/07 06:11:00;;;;;;;35.25;26.05;;;7.20;99.90;;;;;;5097006;28;20039;-50
2023/04/07 06:13:26;;;;;;;33.07;26.37;;;7.20;99.90;;;;;;5105905;28;20043;-50
2023/04/07 06:15:56;;;;;;;45.57;30.63;;;7.20;99.90;;;;;;5101855;28;20031;-52
2023/04/07 06:18:22;;;;;;;47.72;32.45;;;7.30;99.90;;;;;;5101843;28;20561;-51
2023/04/07 06:20:48;;;;;;;42.20;31.10;;;7.30;99.90;;;;;;5101068;28;20039;-53
2023/04/07 06:23:13;;;;;;;47.20;31.17;;;7.30;99.90;;;;;;5100326;28;20537;-53
2023/04/07 06:25:39;;;;;;;39.93;31.33;;;7.30;99.90;;;;;;5097608;28;20036;-51
2023/04/07 06:28:05;;;;;;;45.23;31.77;;;7.30;99.90;;;;;;5105085;28;20114;-53
2023/04/07 06:30:30;;;;;;;45.22;31.63;;;7.30;99.90;;;;;;5101093;28;20084;-50
2023/04/07 06:32:56;;;;;;;41.50;31.73;;;7.30;99.90;;;;;;5108479;28;20400;-54
2023/04/07 06:35:21;;;;;;;40.80;31.00;;;7.30;99.90;;;;;;5099952;28;20040;-51
2023/04/07 06:37:47;;;;;;;41.23;31.63;;;7.30;99.90;;;;;;5109171;28;20043;-53
2023/04/07 06:40:12;;;;;;;48.97;34.03;;;7.30;99.90;;;;;;5103326;27;20032;-53
2023/04/07 06:42:38;;;;;;;41.27;29.43;;;7.40;99.90;;;;;;5092885;28;20047;-52
2023/04/07 06:45:04;;;;;;;47.40;32.23;;;7.30;99.90;;;;;;5095187;28;20051;-50
2023/04/07 06:47:30;;;;;;;43.08;31.30;;;7.40;99.90;;;;;;5100369;28;20067;-51
2023/04/07 06:49:55;;;;;;;41.97;32.33;;;7.40;99.90;;;;;;5100939;28;20109;-55
2023/04/07 06:52:21;;;;;;;40.53;30.63;;;7.40;99.90;;;;;;5101062;28;20639;-53
2023/04/07 06:54:47;;;;;;;40.70;30.30;;;7.40;99.90;;;;;;5096172;28;20047;-54
2023/04/07 06:57:12;;;;;;;35.27;27.30;;;7.40;99.90;;;;;;5105826;28;20434;-55
2023/04/07 06:59:38;;;;;;;40.00;28.50;;;7.40;99.90;;;;;;5107345;28;20042;-51
2023/04/07 07:02:04;;;;;;;34.73;25.53;;;7.50;99.90;;;;;;5105176;28;20427;-54
2023/04/07 07:04:29;;;;;;;33.15;24.77;;;7.50;99.90;;;;;;5106987;28;20297;-53
2023/04/07 07:06:55;;;;;;;30.80;24.83;;;7.60;99.90;;;;;;5096301;28;20129;-52
2023/04/07 07:09:21;;;;;;;33.47;25.83;;;7.60;99.90;;;;;;5096458;28;20115;-51
2023/04/07 07:11:46;;;;;;;35.58;24.73;;;7.70;99.90;;;;;;5095395;28;20446;-51
2023/04/07 07:14:12;;;;;;;29.73;23.27;;;7.70;99.90;;;;;;5091446;28;20077;-53
2023/04/07 07:16:38;;;;;;;31.90;25.05;;;7.70;99.90;;;;;;5093294;28;20040;-51
2023/04/07 07:19:03;;;;;;;34.10;26.27;;;7.70;99.90;;;;;;5090167;28;20086;-53
2023/04/07 07:21:30;;;;;;;32.40;26.77;;;7.80;99.90;;;;;;5102042;28;20289;-54
2023/04/07 07:23:55;;;;;;;34.90;27.15;;;7.80;99.90;;;;;;5099334;28;20138;-53
2023/04/07 07:26:21;;;;;;;34.23;26.73;;;7.80;99.90;;;;;;5103221;28;20130;-54
2023/04/07 07:28:47;;;;;;;33.80;25.57;;;7.80;99.90;;;;;;5089881;28;20035;-53
2023/04/07 07:31:13;;;;;;;36.03;24.97;;;7.80;99.90;;;;;;5097420;28;20059;-53
2023/04/07 07:33:42;;;;;;;31.58;24.55;;;7.80;99.90;;;;;;5091143;28;20124;-51
2023/04/07 07:36:08;;;;;;;28.80;21.92;;;7.80;99.90;;;;;;5100522;28;20119;-52
2023/04/07 07:38:33;;;;;;;26.98;22.70;;;7.90;99.90;;;;;;5091078;28;20123;-51
2023/04/07 07:40:59;;;;;;;23.73;20.35;;;8.00;99.90;;;;;;5100264;28;20035;-53
2023/04/07 07:43:25;;;;;;;26.97;20.37;;;8.00;99.90;;;;;;5094183;28;20035;-51
2023/04/07 07:45:50;;;;;;;28.17;20.80;;;8.10;99.90;;;;;;5102353;28;20648;-52
2023/04/07 07:48:16;;;;;;;30.20;21.77;;;8.10;99.90;;;;;;5091198;28;21454;-51
2023/04/07 07:50:43;;;;;;;25.53;21.60;;;8.20;99.90;;;;;;5098833;28;20278;-51
2023/04/07 07:53:09;;;;;;;28.08;19.48;;;8.30;99.90;;;;;;5090718;28;20073;-51
2023/04/07 07:55:35;;;;;;;21.80;19.08;;;8.30;99.90;;;;;;5103907;28;20534;-51
2023/04/07 07:58:00;;;;;;;22.83;19.83;;;8.40;99.90;;;;;;5096274;28;20036;-52
2023/04/07 08:00:27;;;;;;;21.53;19.20;;;8.40;99.90;;;;;;5090882;28;20290;-53
2023/04/07 08:02:53;;;;;;;22.98;18.98;;;8.40;99.90;;;;;;5105876;28;20288;-54
2023/04/07 08:05:18;;;;;;;25.95;20.02;;;8.50;99.90;;;;;;5106322;28;20023;-57
2023/04/07 08:07:45;;;;;;;22.42;19.15;;;8.50;99.90;;;;;;5100718;28;20065;-53
2023/04/07 08:10:11;;;;;;;21.05;18.75;;;8.50;99.90;;;;;;5101852;28;20043;-55
2023/04/07 08:12:37;;;;;;;21.20;16.40;;;8.50;99.90;;;;;;5099448;28;20064;-53
2023/04/07 08:15:03;;;;;;;19.07;16.90;;;8.50;99.90;;;;;;5101817;28;20070;-53
2023/04/07 08:17:29;;;;;;;21.73;17.38;;;8.50;99.90;;;;;;5096832;28;20289;-54
2023/04/07 08:19:55;;;;;;;20.38;15.30;;;8.60;99.90;;;;;;5097458;28;20517;-52
2023/04/07 08:22:20;;;;;;;18.80;15.63;;;8.60;99.90;;;;;;5097304;27;21303;-55
2023/04/07 08:24:46;;;;;;;21.43;16.80;;;8.50;99.90;;;;;;5089021;28;20393;-53
2023/04/07 08:27:12;;;;;;;19.60;17.60;;;8.50;99.90;;;;;;5104055;28;20067;-55
2023/04/07 08:29:38;;;;;;;20.42;16.13;;;8.60;99.90;;;;;;5102069;28;20281;-54
2023/04/07 08:32:04;;;;;;;21.73;15.37;;;8.60;99.90;;;;;;5101080;28;20031;-55
2023/04/07 08:34:29;;;;;;;20.08;16.77;;;8.60;99.90;;;;;;5089816;28;20166;-56
2023/04/07 08:36:55;;;;;;;19.15;17.00;;;8.60;99.90;;;;;;5095197;28;20104;-56
2023/04/07 08:39:24;;;;;;;18.33;15.65;;;8.60;99.90;;;;;;5089646;28;20519;-54
2023/04/07 08:41:50;;;;;;;18.92;16.33;;;8.60;99.90;;;;;;5094764;28;20519;-59
2023/04/07 08:44:16;;;;;;;21.50;18.98;;;8.60;99.90;;;;;;5108437;28;20032;-60
2023/04/07 08:46:42;;;;;;;22.38;19.55;;;8.60;99.90;;;;;;5103730;28;20507;-58
2023/04/07 08:49:12;;;;;;;23.50;21.05;;;8.60;99.90;;;;;;5090832;28;20066;-59
2023/04/07 08:51:44;;;;;;;26.38;21.60;;;8.60;99.90;;;;;;5103650;28;20068;-60
2023/04/07 08:54:11;;;;;;;29.92;24.95;;;8.50;99.90;;;;;;5095922;28;20044;-60
2023/04/07 08:56:39;;;;;;;33.53;26.63;;;8.50;99.90;;;;;;5094968;28;20626;-59
2023/04/07 08:59:06;;;;;;;34.20;29.13;;;8.50;99.90;;;;;;5092845;28;20418;-58
2023/04/07 09:01:34;;;;;;;36.63;30.80;;;8.60;99.90;;;;;;5095837;28;20533;-59
2023/04/07 09:04:02;;;;;;;35.40;31.30;;;8.50;99.90;;;;;;5093526;28;20036;-59
2023/04/07 09:06:32;;;;;;;38.22;32.75;;;8.60;99.90;;;;;;5092358;28;20154;-59
2023/04/07 09:08:59;;;;;;;43.08;36.22;;;8.60;99.90;;;;;;5092731;28;20039;-58
2023/04/07 09:11:26;;;;;;;47.10;38.10;;;8.60;99.90;;;;;;5092724;28;20043;-59
2023/04/07 09:13:52;;;;;;;51.00;40.75;;;8.50;99.90;;;;;;5092339;28;20044;-60
2023/04/07 09:16:18;;;;;;;41.95;35.03;;;8.50;99.90;;;;;;5090008;28;20064;-59
2023/04/07 09:18:43;;;;;;;43.60;38.65;;;8.60;99.90;;;;;;5089250;28;20137;-59
2023/04/07 09:21:10;;;;;;;41.33;35.60;;;8.60;99.90;;;;;;5096045;28;20408;-61
2023/04/07 09:23:39;;;;;;;;;;;8.60;99.90;;;;;;5093490;28;20047;-59
2023/04/07 09:26:35;;;;;;;40.15;34.65;;;8.70;99.90;;;;;;5094982;28;19923;-59
2023/04/07 09:29:06;;;;;;;40.33;34.63;;;8.70;99.90;;;;;;5075985;28;20386;-59
2023/04/07 09:31:58;;;;;;;43.63;35.55;;;8.70;99.90;;;;;;5101443;28;20599;-60
2023/04/07 09:34:33;;;;;;;38.17;32.67;;;8.70;99.90;;;;;;5093112;28;20192;-60
2023/04/07 09:37:00;;;;;;;37.10;31.20;;;8.70;99.90;;;;;;5096820;28;20043;-59
2023/04/07 09:39:26;;;;;;;37.85;30.55;;;8.70;99.90;;;;;;5089713;28;20040;-58
2023/04/07 09:41:52;;;;;;;37.33;30.85;;;8.70;99.90;;;;;;5095594;28;20122;-58
2023/04/07 09:44:18;;;;;;;31.45;28.00;;;8.70;99.90;;;;;;5096276;28;20047;-59
2023/04/07 09:46:57;;;;;;;29.40;26.23;;;8.70;99.90;;;;;;5101403;28;20103;-59
2023/04/07 09:49:24;;;;;;;28.42;25.23;;;8.80;99.90;;;;;;5095327;28;20073;-59
2023/04/07 09:51:58;;;;;;;24.77;22.17;;;8.80;99.90;;;;;;5092562;28;20111;-61
2023/04/07 09:54:35;;;;;;;25.98;23.17;;;8.90;99.90;;;;;;5098143;28;20093;-59
2023/04/07 09:57:05;;;;;;;26.58;23.73;;;8.90;99.90;;;;;;5097794;28;20058;-59
2023/04/07 09:59:33;;;;;;;24.98;22.00;;;9.00;99.90;;;;;;5096838;28;20038;-58
2023/04/07 10:01:59;;;;;;;23.27;20.80;;;9.00;99.90;;;;;;5095627;28;20061;-59
2023/04/07 10:04:26;;;;;;;23.52;21.08;;;9.10;99.90;;;;;;5097510;28;20039;-58
2023/04/07 10:06:55;;;;;;;25.25;22.65;;;9.10;99.90;;;;;;5101266;28;20082;-60
2023/04/07 10:09:26;;;;;;;25.30;22.55;;;9.10;99.90;;;;;;5099122;28;20423;-60
2023/04/07 10:11:53;;;;;;;26.15;23.45;;;9.20;99.90;;;;;;5097884;28;20040;-59
2023/04/07 10:14:22;;;;;;;25.10;22.52;;;9.20;99.90;;;;;;5100913;28;20115;-60
2023/04/07 10:16:48;;;;;;;24.67;22.17;;;9.20;99.90;;;;;;5100884;28;20039;-59
2023/04/07 10:19:15;;;;;;;25.50;22.75;;;9.20;99.90;;;;;;5096724;28;20035;-59
2023/04/07 10:21:41;;;;;;;23.80;21.33;;;9.20;99.90;;;;;;5098413;28;20477;-59
2023/04/07 10:24:18;;;;;;;23.27;20.85;;;9.20;99.90;;;;;;5099004;28;20040;-60
2023/04/07 10:26:46;;;;;;;;;;;9.20;99.90;;;;;;5098968;28;20104;-60
2023/04/07 10:29:14;;;;;;;23.75;21.27;;;9.20;99.90;;;;;;5090424;28;19920;-60
2023/04/07 10:31:40;;;;;;;21.63;19.52;;;9.20;99.90;;;;;;5097140;28;20040;-59
2023/04/07 10:34:06;;;;;;;21.00;18.80;;;9.30;99.90;;;;;;5098201;28;20057;-59
2023/04/07 10:36:32;;;;;;;19.17;17.20;;;9.30;99.90;;;;;;5100302;28;20218;-59
2023/04/07 10:39:07;;;;;;;19.33;17.33;;;9.40;99.90;;;;;;5103776;28;20095;-59
2023/04/07 10:41:37;;;;;;;17.23;15.52;;;9.40;99.90;;;;;;5099036;28;20051;-61
2023/04/07 10:44:04;;;;;;;15.30;13.70;;;9.40;99.90;;;;;;5101223;28;20501;-60
2023/04/07 10:46:44;;;;;;;14.82;13.32;;;9.50;99.90;;;;;;5102347;28;20396;-58
2023/04/07 10:49:12;;;;;;;14.38;12.98;;;9.50;99.90;;;;;;5097026;28;20056;-59
2023/04/07 10:51:38;;;;;;;15.43;13.93;;;9.50;99.90;;;;;;5095781;28;20043;-59
2023/04/07 10:54:17;;;;;;;;;;;9.50;99.90;;;;;;5093354;28;20066;-60
2023/04/07 10:57:13;;;;;;;15.52;13.35;;;9.50;99.90;;;;;;5097435;28;19916;-59
2023/04/07 11:00:10;;;;;;;14.88;13.25;;;9.50;99.90;;;;;;5088920;28;20052;-59
2023/04/07 11:02:38;;;;;;;14.02;12.52;;;9.50;99.90;;;;;;5101286;28;20127;-59
2023/04/07 11:05:04;;;;;;;10.93;9.82;;;9.50;99.90;;;;;;5107286;28;20040;-60
2023/04/07 11:07:48;;;;;;;12.48;11.15;;;9.50;99.90;;;;;;5095314;28;20075;-58
2023/04/07 11:10:15;;;;;;;12.57;11.32;;;9.60;99.90;;;;;;5095441;28;20028;-60
2023/04/07 11:12:42;;;;;;;13.05;10.55;;;9.60;99.90;;;;;;5094975;28;20374;-60
2023/04/07 11:15:21;;;;;;;10.98;9.88;;;9.70;99.90;;;;;;5099588;28;20100;-60
2023/04/07 11:18:13;;;;;;;9.98;8.98;;;9.70;99.90;;;;;;5097928;28;20032;-61
2023/04/07 11:21:05;;;;;;;10.52;9.45;;;9.70;99.90;;;;;;5104335;28;20122;-60
2023/04/07 11:23:40;;;;;;;9.88;8.88;;;9.60;99.90;;;;;;5090400;28;20053;-60
2023/04/07 11:26:07;;;;;;;9.65;8.65;;;9.60;99.90;;;;;;5090305;28;20047;-60
2023/04/07 11:28:33;;;;;;;10.07;9.02;;;9.60;99.90;;;;;;5104709;28;20105;-60
2023/04/07 11:30:59;;;;;;;9.82;8.73;;;9.60;99.90;;;;;;5108357;28;20031;-58
2023/04/07 11:33:26;;;;;;;11.00;9.77;;;9.60;99.90;;;;;;5095740;28;20558;-60
2023/04/07 11:36:00;;;;;;;11.25;9.82;;;9.60;99.90;;;;;;5092281;28;20044;-60
2023/04/07 11:38:29;;;;;;;10.35;9.25;;;9.50;99.90;;;;;;5103969;28;20036;-61
2023/04/07 11:40:56;;;;;;;9.55;8.52;;;9.50;99.90;;;;;;5109417;28;20367;-60
2023/04/07 11:43:23;;;;;;;10.50;9.40;;;9.50;99.90;;;;;;5101088;28;20036;-60
2023/04/07 11:46:07;;;;;;;12.15;9.27;;;9.40;99.90;;;;;;5098756;28;20409;-59
2023/04/07 11:48:34;;;;;;;14.90;9.32;;;9.40;99.90;;;;;;5092980;28;20258;-60
2023/04/07 11:51:01;;;;;;;10.32;8.82;;;9.40;99.90;;;;;;5095918;28;20056;-59
2023/04/07 11:53:28;;;;;;;12.18;10.45;;;9.30;99.90;;;;;;5099692;28;20468;-61
2023/04/07 11:56:11;;;;;;;10.90;9.80;;;9.30;99.90;;;;;;5098246;28;20539;-59
2023/04/07 11:58:40;;;;;;;10.82;9.73;;;9.30;99.90;;;;;;5095761;28;20467;-60
2023/04/07 12:01:07;;;;;;;10.35;9.35;;;9.30;99.90;;;;;;5098321;28;20240;-60
2023/04/07 12:03:37;;;;;;;11.15;9.93;;;9.30;99.90;;;;;;5099255;28;20087;-59
2023/04/07 12:06:03;;;;;;;13.52;10.43;;;9.30;99.90;;;;;;5095750;28;20093;-60
2023/04/07 12:08:36;;;;;;;;;;;9.30;99.90;;;;;;5098821;28;20104;-60
2023/04/07 12:11:05;;;;;;;9.85;8.90;;;9.30;99.90;;;;;;5090733;28;19923;-59
2023/04/07 12:13:30;;;;;;;10.95;9.52;;;9.30;99.90;;;;;;5093584;28;20477;-59
2023/04/07 12:15:58;;;;;;;10.52;9.52;;;9.30;99.90;;;;;;5092694;28;20123;-59
2023/04/07 12:18:24;;;;;;;10.93;9.80;;;9.30;99.90;;;;;;5094564;28;20108;-60
2023/04/07 12:20:50;;;;;;;10.53;9.43;;;9.30;99.90;;;;;;5092646;28;20044;-58
2023/04/07 12:23:15;;;;;;;10.45;9.45;;;9.40;99.90;;;;;;5098509;28;20369;-59
2023/04/07 12:25:41;;;;;;;10.40;8.95;;;9.40;99.90;;;;;;5099303;28;20031;-60
2023/04/07 12:28:07;;;;;;;10.70;9.60;;;9.40;99.90;;;;;;5097462;28;20031;-61
2023/04/07 12:30:32;;;;;;;11.68;10.48;;;9.50;99.90;;;;;;5099269;28;20331;-61
2023/04/07 12:32:58;;;;;;;11.40;9.47;;;9.50;99.90;;;;;;5095783;28;20036;-60
2023/04/07 12:35:24;;;;;;;10.57;9.47;;;9.60;99.90;;;;;;5099419;28;20057;-60
2023/04/07 12:37:51;;;;;;;11.70;9.75;;;9.70;99.90;;;;;;5099261;28;20316;-60
2023/04/07 12:40:17;;;;;;;9.23;8.23;;;9.80;99.90;;;;;;5100244;28;20040;-59
2023/04/07 12:42:43;;;;;;;10.00;8.82;;;9.90;99.90;;;;;;5103414;28;20439;-59